Helena, MT

7:00 AM MDT on August 29, 2014 (GMT -0600)
Helena 2-North | Change Station
CLOSE
Current Station
Personal Weather Station
Location: Helena, MT
Elevation: 3825 ft
Nearby Weather Stations

Elev 3825 ft 46.62 °N, 112.04 °W | Updated 8 minutes ago

Clear
Clear
47.8 °F
Feels Like 48 °F
N
1.0
Wind Variable Wind from WSW
Gusts 4.0 mph

Today
High -- | Low -- °F
--% Chance of Precip.
Yesterday
High -- | Low -- °F
Precip. -- in
6:44 AM 8:12 PM
Waxing Crescent, 14% visible
Pressure 30.05 in
Visibility 10.0 miles
Clouds Clear
Windchill 48 °F
Dew Point 45 °F
Humidity 89%
Rainfall 0.00 in
Snow Depth Not available.
UV 0 out of 12
Pollen 7.30 out of 12
Air Quality Not available.
Flu Activity Not available.
METAR KHLN 291253Z 00000KT 10SM CLR 10/08 A3008 RMK AO2 SLP176 T01000078

More Conditions Fewer Conditions

Pressure 30.05 in
Visibility 10.0 miles
Clouds Clear
Windchill 48 °F
Dew Point 45 °F
Humidity 89%
Rainfall 0.00 in
Snow Depth Not available.
UV 0 out of 12
Pollen 7.30 out of 12
Air Quality Not available.
Flu Activity Not available.
METAR KHLN 291253Z 00000KT 10SM CLR 10/08 A3008 RMK AO2 SLP176 T01000078

More Conditions Fewer Conditions

10-Day Weather Forecast

Almanac

Astronomy

Aug. 29, 2014 Rise Set
Actual Time 6:44 AM MDT 8:12 PM MDT
Civil Twilight 6:12 AM MDT 8:44 PM MDT
Nautical Twilight 5:34 AM MDT 9:22 PM MDT
Astronomical Twilight 4:53 AM MDT 10:03 PM MDT
Moon 10:53 AM MDT 9:54 PM MDT
Length of Visible Light 14h 31m
Length of Day
13h 28m
Tomorrow will be 3m 11s shorter.
Waxing Crescent, 14% of the Moon is Illuminated
Today
Waxing Crescent
Sep 2
First Quarter
Sep 8
Full
Sep 15
Last Quarter
Sep 24
New

Today's Extremes

State Highs State Lows

Community

WunderPhotos

Upload Photos

1,748,223 photos uploaded!

Nearby

Snow Depth

Station Depth Elevation
Tizer Basin 1 in 6840 ft
Rocker Peak 0 in 8000 ft
Nevada Ridge 0 in 7020 ft
Boulder Mountain 0 in 7950 ft
Pickfoot Creek 0 in 6650 ft

Earthquake Activity

City Distance Mag. Time & Date
No recent earthquake activity has been reported nearby.
Minimum magnitude displayed is 2.5.

Coastal Water Temperatures

Place Temperature
No Stations Reporting

Nearby Weather Stations